Urbion-Ventrosa, Spain
Current Conditions -  °F | °C
As of 12:00 AM on Friday 28 Nov 2014 (Local Time) from LELO Reporting Station
Scattered Clouds Scattered Clouds  
Wind Chill: 55°   Ceiling: Unl
Heat Index: 55°   Visibility: 6mi
Dew Point: 52°   Wind: 20mph
Humidity: 88%   Direction: 100°E
Pressure: 29.29"   Gusts: 31mph
Location:  42.15°N, 2.85°W
Report Text: LELO 272300Z 10017G27KT 9999 FEW011 SCT060 13/11 Q0992
Loading
Personal Weather Stations






























Interactive Weather Map New forecast layout! Learn more

10-Day Weather Forecast

Advertisements
Track Severe Weather on mobile